createdAt,value
2022-10-06T00:02:23.302Z,9.43
2022-10-06T00:05:26.091Z,9.10
2022-10-06T00:08:31.542Z,8.93
2022-10-06T00:11:35.711Z,10.32
2022-10-06T00:14:38.759Z,9.20
2022-10-06T00:17:42.154Z,8.82
2022-10-06T00:20:44.947Z,8.90
2022-10-06T00:23:47.621Z,8.90
2022-10-06T00:26:50.372Z,8.68
2022-10-06T00:29:53.219Z,8.83
2022-10-06T00:33:01.707Z,8.82
2022-10-06T00:36:04.769Z,9.65
2022-10-06T00:39:07.461Z,9.10
2022-10-06T00:42:22.567Z,10.13
2022-10-06T00:45:40.041Z,10.23
2022-10-06T00:48:44.799Z,10.90
2022-10-06T00:51:51.015Z,11.68
2022-10-06T00:54:54.035Z,10.25
2022-10-06T00:57:57.314Z,10.82
2022-10-06T01:01:00.314Z,9.93
2022-10-06T01:04:09.480Z,10.25
2022-10-06T01:07:12.479Z,10.95
2022-10-06T01:10:15.607Z,10.68
2022-10-06T01:13:18.785Z,10.60
2022-10-06T01:16:27.155Z,10.60
2022-10-06T01:19:47.610Z,10.70
2022-10-06T01:22:55.652Z,11.43
2022-10-06T01:26:01.265Z,11.02
2022-10-06T01:29:04.267Z,10.68
2022-10-06T01:32:08.031Z,10.50
2022-10-06T01:35:11.789Z,11.40
2022-10-06T01:38:16.433Z,13.35
2022-10-06T01:41:22.527Z,13.43
2022-10-06T01:44:25.398Z,13.13
2022-10-06T01:47:28.308Z,12.17
2022-10-06T01:50:31.970Z,13.32
2022-10-06T01:53:34.861Z,14.98
2022-10-06T01:56:38.040Z,13.95
2022-10-06T01:59:40.824Z,12.63
2022-10-06T02:02:43.765Z,13.70
2022-10-06T02:05:46.699Z,13.68
2022-10-06T02:08:49.972Z,13.98
2022-10-06T02:11:53.357Z,13.05
2022-10-06T02:14:56.186Z,15.88
2022-10-06T02:17:59.809Z,15.57
2022-10-06T02:21:04.054Z,15.45
2022-10-06T02:24:07.376Z,15.23
2022-10-06T02:27:10.363Z,15.90
2022-10-06T02:30:14.877Z,15.98
2022-10-06T02:33:19.414Z,14.27
2022-10-06T02:36:25.245Z,14.07
2022-10-06T02:39:28.789Z,13.52
2022-10-06T02:42:31.773Z,11.60
2022-10-06T02:45:35.837Z,12.13
2022-10-06T02:48:39.826Z,12.87
2022-10-06T02:51:43.422Z,12.63
2022-10-06T02:54:47.035Z,12.50
2022-10-06T02:57:50.275Z,12.57
2022-10-06T03:00:53.129Z,11.90
2022-10-06T03:03:56.219Z,12.47
2022-10-06T03:06:59.154Z,12.80
2022-10-06T03:10:07.534Z,14.93
2022-10-06T03:13:10.311Z,16.38
2022-10-06T03:16:19.484Z,16.33
2022-10-06T03:19:22.716Z,20.23
2022-10-06T03:22:26.106Z,21.83
2022-10-06T03:25:31.189Z,21.98
2022-10-06T03:28:34.399Z,20.15
2022-10-06T03:31:38.148Z,20.23
2022-10-06T03:34:41.282Z,19.27
2022-10-06T03:37:47.613Z,22.25
2022-10-06T03:40:50.839Z,21.48
2022-10-06T03:43:55.126Z,20.92
2022-10-06T03:46:58.329Z,21.50
2022-10-06T03:50:01.779Z,22.90
2022-10-06T03:53:05.518Z,22.50
2022-10-06T03:56:11.940Z,22.55
2022-10-06T03:59:17.524Z,21.73
2022-10-06T04:02:22.314Z,20.95
2022-10-06T04:05:25.080Z,21.00
2022-10-06T04:08:30.165Z,22.33
2022-10-06T04:11:37.723Z,22.20
2022-10-06T04:14:41.467Z,21.00
2022-10-06T04:17:44.727Z,22.67
2022-10-06T04:20:47.579Z,23.33
2022-10-06T04:23:53.858Z,23.70
2022-10-06T04:27:16.879Z,20.80
2022-10-06T04:30:26.348Z,23.27
2022-10-06T04:33:31.363Z,24.55
2022-10-06T04:36:38.270Z,23.80
2022-10-06T04:39:41.330Z,25.80
2022-10-06T04:42:45.826Z,27.13
2022-10-06T04:46:09.521Z,27.33
2022-10-06T04:49:24.956Z,27.05
2022-10-06T04:52:29.190Z,26.33
2022-10-06T04:55:31.989Z,27.95
2022-10-06T04:58:38.220Z,27.85
2022-10-06T05:01:41.180Z,25.58
2022-10-06T05:04:47.716Z,26.40
2022-10-06T05:07:52.126Z,25.10
2022-10-06T05:11:03.898Z,24.60
2022-10-06T05:14:07.073Z,25.33
2022-10-06T05:17:13.144Z,23.75
2022-10-06T05:20:18.021Z,27.83
2022-10-06T05:23:21.868Z,33.50
2022-10-06T05:26:28.577Z,31.42
2022-10-06T05:29:34.691Z,33.17
2022-10-06T05:32:38.886Z,34.03
2022-10-06T05:35:51.380Z,34.67
2022-10-06T05:38:58.717Z,31.57
2022-10-06T05:42:03.169Z,31.00
2022-10-06T05:45:06.346Z,30.35
2022-10-06T05:48:10.426Z,29.48
2022-10-06T05:51:13.811Z,28.83
2022-10-06T05:54:17.298Z,27.97
2022-10-06T05:57:20.159Z,26.48
2022-10-06T06:00:23.779Z,27.60
2022-10-06T06:03:31.273Z,25.77
2022-10-06T06:06:37.267Z,23.35
2022-10-06T06:09:43.447Z,22.93
2022-10-06T06:12:49.151Z,21.85
2022-10-06T06:16:31.180Z,22.40
2022-10-06T06:19:34.416Z,20.30
2022-10-06T06:22:37.572Z,20.30
2022-10-06T06:25:42.817Z,19.67
2022-10-06T06:29:07.798Z,18.48
2022-10-06T06:32:17.279Z,19.65
2022-10-06T06:35:20.934Z,18.85
2022-10-06T06:38:24.020Z,19.40
2022-10-06T06:41:31.354Z,17.07
2022-10-06T06:44:42.839Z,17.23
2022-10-06T06:48:06.315Z,15.18
2022-10-06T06:52:16.847Z,15.55
2022-10-06T06:55:20.354Z,15.05
2022-10-06T06:58:25.796Z,14.37
2022-10-06T07:01:29.146Z,13.90
2022-10-06T07:04:33.331Z,14.95
2022-10-06T07:07:36.709Z,14.43
2022-10-06T07:10:39.886Z,14.70
2022-10-06T07:13:43.787Z,14.53
2022-10-06T07:17:05.173Z,14.93
2022-10-06T07:20:27.384Z,14.95
2022-10-06T07:23:48.882Z,14.32
2022-10-06T07:26:55.273Z,13.90
2022-10-06T07:29:59.297Z,13.57
2022-10-06T07:33:07.632Z,14.00
2022-10-06T07:36:11.967Z,15.15
2022-10-06T07:39:15.757Z,14.05
2022-10-06T07:42:19.394Z,14.23
2022-10-06T07:45:38.712Z,13.60
2022-10-06T07:48:47.079Z,13.60
2022-10-06T07:52:20.990Z,13.68
2022-10-06T07:55:24.606Z,13.35
2022-10-06T07:58:45.866Z,13.25
2022-10-06T08:01:51.202Z,13.20
2022-10-06T08:04:59.397Z,13.40
2022-10-06T08:08:06.107Z,12.90
2022-10-06T08:11:13.827Z,12.85
2022-10-06T08:14:16.860Z,12.43
2022-10-06T08:17:19.912Z,12.43
2022-10-06T08:20:30.534Z,10.13
2022-10-06T08:23:33.311Z,10.65
2022-10-06T08:26:36.080Z,11.45
2022-10-06T08:29:38.829Z,10.88
2022-10-06T08:32:44.813Z,10.70
2022-10-06T08:35:53.187Z,9.30
2022-10-06T08:38:56.766Z,9.77
2022-10-06T08:41:59.672Z,9.90
2022-10-06T08:45:06.100Z,8.40
2022-10-06T08:48:24.266Z,7.63
2022-10-06T08:51:43.517Z,8.70
2022-10-06T08:55:14.118Z,9.55
2022-10-06T08:58:52.849Z,8.80
2022-10-06T09:01:55.897Z,8.55
2022-10-06T09:05:09.079Z,7.83
2022-10-06T09:08:42.117Z,7.82
2022-10-06T09:12:11.948Z,7.70
2022-10-06T09:15:16.855Z,7.72
2022-10-06T09:19:07.236Z,8.10
2022-10-06T09:23:01.717Z,6.40
2022-10-06T09:26:09.971Z,7.00
2022-10-06T09:29:14.765Z,7.05
2022-10-06T09:33:32.857Z,6.43
2022-10-06T09:37:01.659Z,6.93
2022-10-06T09:40:31.829Z,6.50
2022-10-06T09:43:34.581Z,7.60
2022-10-06T09:46:42.443Z,7.68
2022-10-06T09:50:22.557Z,7.43
2022-10-06T09:53:26.353Z,6.63
2022-10-06T10:00:27.825Z,6.13
2022-10-06T10:07:26.802Z,7.80
2022-10-06T10:10:35.695Z,7.22
2022-10-06T10:13:44.531Z,5.53
2022-10-06T10:16:53.134Z,6.07
2022-10-06T10:20:01.542Z,6.93
2022-10-06T10:23:21.502Z,7.72
2022-10-06T10:26:59.735Z,6.60
2022-10-06T10:30:10.048Z,6.43
2022-10-06T10:36:51.097Z,6.82
2022-10-06T10:40:16.631Z,8.57
2022-10-06T10:43:33.932Z,6.35
2022-10-06T10:46:44.943Z,5.70
2022-10-06T10:49:56.489Z,5.53
2022-10-06T10:53:11.436Z,5.38
2022-10-06T10:56:16.583Z,5.20
2022-10-06T10:59:36.350Z,5.20
2022-10-06T11:02:41.264Z,5.50
2022-10-06T11:06:03.683Z,3.20
2022-10-06T11:10:01.845Z,3.70
2022-10-06T11:14:17.032Z,2.95
2022-10-06T11:17:44.515Z,3.50
2022-10-06T11:20:53.435Z,2.90
2022-10-06T11:24:15.884Z,2.75
2022-10-06T11:27:59.232Z,2.80
2022-10-06T11:31:20.196Z,2.95
2022-10-06T11:34:26.240Z,3.13
2022-10-06T11:37:47.935Z,3.40
2022-10-06T11:41:16.286Z,2.83
2022-10-06T11:44:37.506Z,3.50
2022-10-06T11:48:22.158Z,3.15
2022-10-06T11:51:29.552Z,3.85
2022-10-06T11:54:53.701Z,4.20
2022-10-06T11:58:23.543Z,3.63
2022-10-06T12:02:45.762Z,3.40
2022-10-06T12:05:56.130Z,2.80
2022-10-06T12:08:59.516Z,3.30
2022-10-06T12:12:24.783Z,3.10
2022-10-06T12:19:20.450Z,3.00
2022-10-06T12:22:49.541Z,3.30
2022-10-06T12:26:20.079Z,4.40
2022-10-06T12:29:40.811Z,3.30
2022-10-06T12:33:00.653Z,2.92
2022-10-06T12:36:06.224Z,3.30
2022-10-06T12:39:23.687Z,3.13
2022-10-06T12:42:31.320Z,3.40
2022-10-06T12:45:34.600Z,2.80
2022-10-06T12:49:25.409Z,2.92
2022-10-06T12:52:39.404Z,3.15
2022-10-06T12:55:50.134Z,2.92
2022-10-06T12:58:52.952Z,3.03
2022-10-06T13:02:03.032Z,2.80
2022-10-06T13:05:12.885Z,2.50
2022-10-06T13:08:27.617Z,2.80
2022-10-06T13:11:30.371Z,3.00
2022-10-06T13:14:33.091Z,2.83
2022-10-06T13:17:49.001Z,2.90
2022-10-06T13:20:56.090Z,2.80
2022-10-06T13:23:59.343Z,3.10
2022-10-06T13:27:03.097Z,3.22
2022-10-06T13:30:22.594Z,2.50
2022-10-06T13:33:30.310Z,2.93
2022-10-06T13:36:37.469Z,2.30
2022-10-06T13:39:40.391Z,2.55
2022-10-06T13:42:47.451Z,2.40
2022-10-06T13:45:50.321Z,2.60
2022-10-06T13:48:59.812Z,2.87
2022-10-06T13:52:34.285Z,2.30
2022-10-06T13:55:37.076Z,2.70
2022-10-06T13:58:39.846Z,2.85
2022-10-06T14:01:43.430Z,2.50
2022-10-06T14:05:20.160Z,2.40
2022-10-06T14:08:28.149Z,2.45
2022-10-06T14:11:31.812Z,2.55
2022-10-06T14:14:34.703Z,2.58
2022-10-06T14:17:37.484Z,3.22
2022-10-06T14:20:46.032Z,2.53
2022-10-06T14:23:53.068Z,3.20
2022-10-06T14:27:01.932Z,2.75
2022-10-06T14:30:10.066Z,2.80
2022-10-06T14:33:12.954Z,3.22
2022-10-06T14:36:19.216Z,2.70
2022-10-06T14:39:22.308Z,3.25
2022-10-06T14:42:25.076Z,3.65
2022-10-06T14:45:27.741Z,3.13
2022-10-06T14:48:30.790Z,3.75
2022-10-06T14:51:36.636Z,3.03
2022-10-06T14:54:39.802Z,3.42
2022-10-06T14:57:42.498Z,5.15
2022-10-06T15:00:45.868Z,3.95
2022-10-06T15:03:53.372Z,3.05
2022-10-06T15:07:14.714Z,3.40
2022-10-06T15:10:17.475Z,6.20
2022-10-06T15:13:20.572Z,5.90
2022-10-06T15:16:23.445Z,7.80
2022-10-06T15:19:26.633Z,5.65
2022-10-06T15:22:31.839Z,8.40
2022-10-06T15:25:52.946Z,8.93
2022-10-06T15:29:02.310Z,9.85
2022-10-06T15:32:06.817Z,10.68
2022-10-06T15:35:09.923Z,10.15
2022-10-06T15:38:12.655Z,6.43
2022-10-06T15:41:15.977Z,7.75
2022-10-06T15:44:19.838Z,14.48
2022-10-06T15:47:22.668Z,23.95
2022-10-06T15:50:25.422Z,31.13
2022-10-06T15:53:28.187Z,25.63
2022-10-06T15:56:32.029Z,35.03
2022-10-06T15:59:35.615Z,28.23
2022-10-06T16:02:38.377Z,27.42
2022-10-06T16:05:46.757Z,22.25
2022-10-06T16:08:49.677Z,25.90
2022-10-06T16:11:53.523Z,21.58
2022-10-06T16:14:56.547Z,19.13
2022-10-06T16:17:59.655Z,14.30
2022-10-06T16:21:03.005Z,13.93
2022-10-06T16:24:06.000Z,11.23
2022-10-06T16:27:16.108Z,17.42
2022-10-06T16:30:18.979Z,26.95
2022-10-06T16:33:21.780Z,21.35
2022-10-06T16:36:24.737Z,17.38
2022-10-06T16:39:28.211Z,16.23
2022-10-06T16:42:31.002Z,23.45
2022-10-06T16:45:34.283Z,20.00
2022-10-06T16:48:39.628Z,19.20
2022-10-06T16:51:45.856Z,14.10
2022-10-06T16:54:48.677Z,15.67
2022-10-06T16:57:51.358Z,14.80
2022-10-06T17:00:58.397Z,15.50
2022-10-06T17:04:06.716Z,14.93
2022-10-06T17:07:10.050Z,15.90
2022-10-06T17:10:20.639Z,16.43
2022-10-06T17:13:24.061Z,17.63
2022-10-06T17:16:32.810Z,22.42
2022-10-06T17:19:36.139Z,25.10
2022-10-06T17:22:39.039Z,26.13
2022-10-06T17:25:42.637Z,24.97
2022-10-06T17:28:50.511Z,35.38
2022-10-06T17:31:56.351Z,36.00
2022-10-06T17:34:59.326Z,37.85
2022-10-06T17:38:03.739Z,39.42
2022-10-06T17:41:10.562Z,38.50
2022-10-06T17:44:21.446Z,44.55
2022-10-06T17:47:24.214Z,41.00
2022-10-06T17:50:27.819Z,34.13
2022-10-06T17:53:30.671Z,32.58
2022-10-06T17:56:37.387Z,28.53
2022-10-06T17:59:40.072Z,30.98
2022-10-06T18:02:43.386Z,29.23
2022-10-06T18:05:53.762Z,26.88
2022-10-06T18:08:59.575Z,26.77
2022-10-06T18:12:03.354Z,28.93
2022-10-06T18:15:06.435Z,28.92
2022-10-06T18:18:09.230Z,29.52
2022-10-06T18:21:12.619Z,25.77
2022-10-06T18:24:17.170Z,28.23
2022-10-06T18:27:20.425Z,27.27
2022-10-06T18:30:28.347Z,29.35
2022-10-06T18:36:54.800Z,25.02
2022-10-06T18:39:57.644Z,30.70
2022-10-06T18:43:00.940Z,31.93
2022-10-06T18:46:25.132Z,33.58
2022-10-06T18:49:28.056Z,32.42
2022-10-06T18:52:30.967Z,35.60
2022-10-06T18:55:35.202Z,33.22
2022-10-06T18:58:39.959Z,30.47
2022-10-06T19:01:45.564Z,26.85
2022-10-06T19:04:48.554Z,19.58
2022-10-06T19:07:53.995Z,17.20
2022-10-06T19:11:21.042Z,18.80
2022-10-06T19:14:29.940Z,21.63
2022-10-06T19:17:32.695Z,22.00
2022-10-06T19:20:35.671Z,20.55
2022-10-06T19:23:40.109Z,19.70
2022-10-06T19:26:46.127Z,17.90
2022-10-06T19:29:56.793Z,18.87
2022-10-06T19:32:59.815Z,19.20
2022-10-06T19:36:03.836Z,19.10
2022-10-06T19:39:10.609Z,18.95
2022-10-06T19:42:34.619Z,21.48
2022-10-06T19:45:37.579Z,22.20
2022-10-06T19:48:40.593Z,31.50
2022-10-06T19:51:44.243Z,29.88
2022-10-06T19:54:47.048Z,41.42
2022-10-06T19:57:53.696Z,61.70
2022-10-06T20:00:56.470Z,56.63
2022-10-06T20:03:59.733Z,58.53
2022-10-06T20:07:03.003Z,52.25
2022-10-06T20:10:06.601Z,39.05
2022-10-06T20:13:10.035Z,38.72
2022-10-06T20:16:18.749Z,39.83
2022-10-06T20:19:22.362Z,37.65
2022-10-06T20:22:25.633Z,42.35
2022-10-06T20:25:28.473Z,43.88
2022-10-06T20:28:34.611Z,44.65
2022-10-06T20:31:43.057Z,46.10
2022-10-06T20:34:45.806Z,36.83
2022-10-06T20:37:48.570Z,29.58
2022-10-06T20:40:51.657Z,26.65
2022-10-06T20:43:57.270Z,31.83
2022-10-06T20:47:00.264Z,33.20
2022-10-06T20:50:03.033Z,32.25
2022-10-06T20:53:05.918Z,33.90
2022-10-06T20:56:09.735Z,32.08
2022-10-06T20:59:12.737Z,33.15
2022-10-06T21:02:15.639Z,32.83
2022-10-06T21:05:18.965Z,33.70
2022-10-06T21:08:22.395Z,32.88
2022-10-06T21:11:25.837Z,31.20
2022-10-06T21:14:29.490Z,30.90
2022-10-06T21:17:32.236Z,31.10
2022-10-06T21:20:40.764Z,31.27
2022-10-06T21:23:50.263Z,30.38
2022-10-06T21:26:53.051Z,27.02
2022-10-06T21:29:56.223Z,25.20
2022-10-06T21:32:59.271Z,24.73
2022-10-06T21:36:04.092Z,23.60
2022-10-06T21:39:07.370Z,23.63
2022-10-06T21:42:10.263Z,21.42
2022-10-06T21:45:13.143Z,22.17
2022-10-06T21:48:16.064Z,22.00
2022-10-06T21:51:19.353Z,21.80
2022-10-06T21:54:23.601Z,21.77
2022-10-06T21:57:26.281Z,20.45
2022-10-06T22:00:28.968Z,19.65
2022-10-06T22:03:34.887Z,17.97
2022-10-06T22:06:37.760Z,15.52
2022-10-06T22:09:40.481Z,18.60
2022-10-06T22:12:43.273Z,17.10
2022-10-06T22:15:46.039Z,16.02
2022-10-06T22:18:49.768Z,17.97
2022-10-06T22:21:54.238Z,16.42
2022-10-06T22:24:56.889Z,16.05
2022-10-06T22:27:59.603Z,17.23
2022-10-06T22:31:08.020Z,16.35
2022-10-06T22:34:13.427Z,15.97
2022-10-06T22:37:16.108Z,15.10
2022-10-06T22:40:18.835Z,16.05
2022-10-06T22:43:21.619Z,16.38
2022-10-06T22:46:25.982Z,16.13
2022-10-06T22:49:28.683Z,14.57
2022-10-06T22:52:31.398Z,15.63
2022-10-06T22:55:34.122Z,16.00
2022-10-06T22:58:38.855Z,17.08
2022-10-06T23:01:41.912Z,17.48
2022-10-06T23:04:44.779Z,17.33
2022-10-06T23:07:47.755Z,17.33
2022-10-06T23:10:50.705Z,18.13
2022-10-06T23:13:53.737Z,15.63
2022-10-06T23:16:56.549Z,15.80
2022-10-06T23:19:59.344Z,15.57
2022-10-06T23:23:02.145Z,16.77
2022-10-06T23:26:10.652Z,15.73
2022-10-06T23:29:13.419Z,15.40
2022-10-06T23:32:16.386Z,16.45
2022-10-06T23:35:19.065Z,17.33
2022-10-06T23:38:21.922Z,16.10
2022-10-06T23:41:24.677Z,17.40
2022-10-06T23:44:27.595Z,16.08
2022-10-06T23:47:30.365Z,16.85
2022-10-06T23:50:33.539Z,16.30
2022-10-06T23:53:36.884Z,17.20
2022-10-06T23:56:39.639Z,19.45
2022-10-06T23:59:42.351Z,16.83
